TAF Text Data
IDs:
Format:
Raw Decoded Include METAR

Data at: 0743 UTC 07 Dec 2022

KBTV 070530Z 0706/0806 19006KT P6SM VCSH OVC035 WS020/17040KT
  FM070800 16005KT P6SM -RA OVC027 WS020/17040KT
  FM071000 17010KT P6SM VCSH OVC023
  FM080100 18006KT P6SM VCSH SCT008 OVC012